sensor_id;sensor_type;location;lat;lon;timestamp;P1;durP1;ratioP1;P2;durP2;ratioP2
35803;SDS011;21924;51.934;7.414;2023-05-15T00:00:22;12.30;;;6.97;;
35803;SDS011;21924;51.934;7.414;2023-05-15T00:03:06;9.90;;;6.15;;
35803;SDS011;21924;51.934;7.414;2023-05-15T00:05:50;11.18;;;7.20;;
35803;SDS011;21924;51.934;7.414;2023-05-15T00:08:35;11.60;;;7.28;;
35803;SDS011;21924;51.934;7.414;2023-05-15T00:11:19;9.60;;;6.93;;
35803;SDS011;21924;51.934;7.414;2023-05-15T00:14:05;11.32;;;7.55;;
35803;SDS011;21924;51.934;7.414;2023-05-15T00:16:50;12.25;;;8.13;;
35803;SDS011;21924;51.934;7.414;2023-05-15T00:19:34;12.02;;;7.70;;
35803;SDS011;21924;51.934;7.414;2023-05-15T00:22:18;11.05;;;7.40;;
35803;SDS011;21924;51.934;7.414;2023-05-15T00:25:03;9.75;;;7.32;;
35803;SDS011;21924;51.934;7.414;2023-05-15T00:27:47;10.35;;;7.80;;
35803;SDS011;21924;51.934;7.414;2023-05-15T00:30:31;11.18;;;7.38;;
35803;SDS011;21924;51.934;7.414;2023-05-15T00:33:16;10.90;;;8.10;;
35803;SDS011;21924;51.934;7.414;2023-05-15T00:36:00;12.68;;;8.73;;
35803;SDS011;21924;51.934;7.414;2023-05-15T00:38:44;14.50;;;8.82;;
35803;SDS011;21924;51.934;7.414;2023-05-15T00:41:29;14.65;;;10.00;;
35803;SDS011;21924;51.934;7.414;2023-05-15T00:44:15;16.98;;;11.40;;
35803;SDS011;21924;51.934;7.414;2023-05-15T00:47:01;22.67;;;11.02;;
35803;SDS011;21924;51.934;7.414;2023-05-15T00:49:48;14.43;;;10.10;;
35803;SDS011;21924;51.934;7.414;2023-05-15T00:52:34;19.60;;;11.05;;
35803;SDS011;21924;51.934;7.414;2023-05-15T00:55:19;15.80;;;11.45;;
35803;SDS011;21924;51.934;7.414;2023-05-15T00:58:03;16.75;;;12.38;;
35803;SDS011;21924;51.934;7.414;2023-05-15T01:00:48;17.35;;;11.60;;
35803;SDS011;21924;51.934;7.414;2023-05-15T01:03:33;17.83;;;11.95;;
35803;SDS011;21924;51.934;7.414;2023-05-15T01:06:17;20.23;;;12.02;;
35803;SDS011;21924;51.934;7.414;2023-05-15T01:09:02;24.73;;;13.32;;
35803;SDS011;21924;51.934;7.414;2023-05-15T01:11:46;30.58;;;16.92;;
35803;SDS011;21924;51.934;7.414;2023-05-15T01:14:34;31.95;;;15.82;;
35803;SDS011;21924;51.934;7.414;2023-05-15T01:17:18;27.85;;;17.20;;
35803;SDS011;21924;51.934;7.414;2023-05-15T01:20:03;29.25;;;16.33;;
35803;SDS011;21924;51.934;7.414;2023-05-15T01:23:05;28.15;;;16.27;;
35803;SDS011;21924;51.934;7.414;2023-05-15T01:29:07;25.33;;;16.83;;
35803;SDS011;21924;51.934;7.414;2023-05-15T01:32:19;30.50;;;16.05;;
35803;SDS011;21924;51.934;7.414;2023-05-15T01:35:15;30.17;;;18.42;;
35803;SDS011;21924;51.934;7.414;2023-05-15T01:38:18;31.25;;;17.55;;
35803;SDS011;21924;51.934;7.414;2023-05-15T01:44:07;37.22;;;20.05;;
35803;SDS011;21924;51.934;7.414;2023-05-15T01:46:59;35.08;;;20.90;;
35803;SDS011;21924;51.934;7.414;2023-05-15T01:49:48;33.90;;;20.80;;
35803;SDS011;21924;51.934;7.414;2023-05-15T01:52:34;34.28;;;19.40;;
35803;SDS011;21924;51.934;7.414;2023-05-15T01:55:22;32.20;;;20.75;;
35803;SDS011;21924;51.934;7.414;2023-05-15T01:58:09;34.13;;;20.70;;
35803;SDS011;21924;51.934;7.414;2023-05-15T02:00:53;30.05;;;18.73;;
35803;SDS011;21924;51.934;7.414;2023-05-15T02:03:39;32.60;;;17.30;;
35803;SDS011;21924;51.934;7.414;2023-05-15T02:06:24;31.08;;;17.98;;
35803;SDS011;21924;51.934;7.414;2023-05-15T02:09:09;34.65;;;18.20;;
35803;SDS011;21924;51.934;7.414;2023-05-15T02:11:54;33.42;;;19.40;;
35803;SDS011;21924;51.934;7.414;2023-05-15T02:14:40;34.47;;;20.35;;
35803;SDS011;21924;51.934;7.414;2023-05-15T02:17:26;35.90;;;20.58;;
35803;SDS011;21924;51.934;7.414;2023-05-15T02:20:11;36.88;;;20.65;;
35803;SDS011;21924;51.934;7.414;2023-05-15T02:22:56;41.65;;;21.80;;
35803;SDS011;21924;51.934;7.414;2023-05-15T02:25:59;37.22;;;21.90;;
35803;SDS011;21924;51.934;7.414;2023-05-15T02:37:45;45.33;;;23.35;;
35803;SDS011;21924;51.934;7.414;2023-05-15T02:40:34;35.85;;;21.05;;
35803;SDS011;21924;51.934;7.414;2023-05-15T02:46:04;35.65;;;20.92;;
35803;SDS011;21924;51.934;7.414;2023-05-15T02:48:50;45.23;;;22.57;;
35803;SDS011;21924;51.934;7.414;2023-05-15T02:51:35;46.53;;;23.70;;
35803;SDS011;21924;51.934;7.414;2023-05-15T02:54:19;41.53;;;23.80;;
35803;SDS011;21924;51.934;7.414;2023-05-15T02:57:04;39.83;;;23.25;;
35803;SDS011;21924;51.934;7.414;2023-05-15T02:59:51;41.08;;;23.05;;
35803;SDS011;21924;51.934;7.414;2023-05-15T03:02:36;47.63;;;24.02;;
35803;SDS011;21924;51.934;7.414;2023-05-15T03:05:20;46.08;;;24.08;;
35803;SDS011;21924;51.934;7.414;2023-05-15T03:08:04;44.95;;;24.63;;
35803;SDS011;21924;51.934;7.414;2023-05-15T03:10:49;49.03;;;24.23;;
35803;SDS011;21924;51.934;7.414;2023-05-15T03:13:33;52.10;;;27.77;;
35803;SDS011;21924;51.934;7.414;2023-05-15T03:16:18;53.00;;;27.20;;
35803;SDS011;21924;51.934;7.414;2023-05-15T03:19:01;50.65;;;27.80;;
35803;SDS011;21924;51.934;7.414;2023-05-15T03:21:46;57.70;;;28.52;;
35803;SDS011;21924;51.934;7.414;2023-05-15T03:24:30;54.55;;;28.35;;
35803;SDS011;21924;51.934;7.414;2023-05-15T03:27:14;56.13;;;28.83;;
35803;SDS011;21924;51.934;7.414;2023-05-15T03:29:58;59.03;;;30.27;;
35803;SDS011;21924;51.934;7.414;2023-05-15T03:32:43;57.53;;;30.30;;
35803;SDS011;21924;51.934;7.414;2023-05-15T03:35:27;58.75;;;30.60;;
35803;SDS011;21924;51.934;7.414;2023-05-15T03:38:13;65.47;;;31.73;;
35803;SDS011;21924;51.934;7.414;2023-05-15T03:40:56;68.57;;;32.28;;
35803;SDS011;21924;51.934;7.414;2023-05-15T03:43:41;69.25;;;30.90;;
35803;SDS011;21924;51.934;7.414;2023-05-15T03:46:25;66.25;;;32.15;;
35803;SDS011;21924;51.934;7.414;2023-05-15T03:49:10;58.83;;;29.08;;
35803;SDS011;21924;51.934;7.414;2023-05-15T03:51:55;67.00;;;33.67;;
35803;SDS011;21924;51.934;7.414;2023-05-15T03:54:40;61.15;;;31.42;;
35803;SDS011;21924;51.934;7.414;2023-05-15T03:57:25;67.57;;;33.40;;
35803;SDS011;21924;51.934;7.414;2023-05-15T04:00:09;67.75;;;32.03;;
35803;SDS011;21924;51.934;7.414;2023-05-15T04:02:54;65.43;;;29.80;;
35803;SDS011;21924;51.934;7.414;2023-05-15T04:05:39;67.57;;;32.85;;
35803;SDS011;21924;51.934;7.414;2023-05-15T04:08:23;70.10;;;32.83;;
35803;SDS011;21924;51.934;7.414;2023-05-15T04:11:08;66.07;;;31.58;;
35803;SDS011;21924;51.934;7.414;2023-05-15T04:13:54;64.47;;;32.72;;
35803;SDS011;21924;51.934;7.414;2023-05-15T04:16:38;68.68;;;33.30;;
35803;SDS011;21924;51.934;7.414;2023-05-15T04:19:23;78.68;;;35.05;;
35803;SDS011;21924;51.934;7.414;2023-05-15T04:22:07;71.20;;;33.60;;
35803;SDS011;21924;51.934;7.414;2023-05-15T04:24:51;70.75;;;34.83;;
35803;SDS011;21924;51.934;7.414;2023-05-15T04:27:36;70.20;;;31.73;;
35803;SDS011;21924;51.934;7.414;2023-05-15T04:30:20;67.97;;;34.13;;
35803;SDS011;21924;51.934;7.414;2023-05-15T04:33:04;69.35;;;33.17;;
35803;SDS011;21924;51.934;7.414;2023-05-15T04:35:49;76.63;;;34.25;;
35803;SDS011;21924;51.934;7.414;2023-05-15T04:38:33;72.30;;;32.13;;
35803;SDS011;21924;51.934;7.414;2023-05-15T04:41:18;69.75;;;33.75;;
35803;SDS011;21924;51.934;7.414;2023-05-15T04:44:02;70.95;;;32.50;;
35803;SDS011;21924;51.934;7.414;2023-05-15T04:46:46;71.28;;;33.08;;
35803;SDS011;21924;51.934;7.414;2023-05-15T04:49:30;76.15;;;33.05;;
35803;SDS011;21924;51.934;7.414;2023-05-15T04:52:15;75.88;;;35.08;;
35803;SDS011;21924;51.934;7.414;2023-05-15T04:55:00;83.28;;;35.97;;
35803;SDS011;21924;51.934;7.414;2023-05-15T04:57:45;77.22;;;35.03;;
35803;SDS011;21924;51.934;7.414;2023-05-15T05:00:30;70.72;;;33.67;;
35803;SDS011;21924;51.934;7.414;2023-05-15T05:03:14;71.78;;;32.50;;
35803;SDS011;21924;51.934;7.414;2023-05-15T05:05:59;75.25;;;32.85;;
35803;SDS011;21924;51.934;7.414;2023-05-15T05:08:43;74.45;;;33.80;;
35803;SDS011;21924;51.934;7.414;2023-05-15T05:11:28;68.35;;;31.38;;
35803;SDS011;21924;51.934;7.414;2023-05-15T05:14:12;71.20;;;32.50;;
35803;SDS011;21924;51.934;7.414;2023-05-15T05:16:57;70.83;;;33.57;;
35803;SDS011;21924;51.934;7.414;2023-05-15T05:19:42;68.90;;;31.35;;
35803;SDS011;21924;51.934;7.414;2023-05-15T05:22:26;68.85;;;32.17;;
35803;SDS011;21924;51.934;7.414;2023-05-15T05:25:10;71.53;;;32.70;;
35803;SDS011;21924;51.934;7.414;2023-05-15T05:27:54;71.10;;;33.05;;
35803;SDS011;21924;51.934;7.414;2023-05-15T05:30:39;67.95;;;32.03;;
35803;SDS011;21924;51.934;7.414;2023-05-15T05:33:26;67.78;;;31.00;;
35803;SDS011;21924;51.934;7.414;2023-05-15T05:36:11;64.55;;;30.90;;
35803;SDS011;21924;51.934;7.414;2023-05-15T05:38:55;64.72;;;29.00;;
35803;SDS011;21924;51.934;7.414;2023-05-15T05:41:39;60.75;;;29.38;;
35803;SDS011;21924;51.934;7.414;2023-05-15T05:44:23;57.65;;;28.55;;
35803;SDS011;21924;51.934;7.414;2023-05-15T05:47:08;55.55;;;27.90;;
35803;SDS011;21924;51.934;7.414;2023-05-15T05:49:52;60.30;;;29.27;;
35803;SDS011;21924;51.934;7.414;2023-05-15T05:52:37;57.53;;;27.87;;
35803;SDS011;21924;51.934;7.414;2023-05-15T05:55:22;57.47;;;27.25;;
35803;SDS011;21924;51.934;7.414;2023-05-15T05:58:06;56.38;;;27.80;;
35803;SDS011;21924;51.934;7.414;2023-05-15T06:00:50;52.58;;;27.60;;
35803;SDS011;21924;51.934;7.414;2023-05-15T06:03:35;50.97;;;26.88;;
35803;SDS011;21924;51.934;7.414;2023-05-15T06:06:20;51.38;;;25.20;;
35803;SDS011;21924;51.934;7.414;2023-05-15T06:09:05;50.08;;;24.63;;
35803;SDS011;21924;51.934;7.414;2023-05-15T06:11:49;45.65;;;25.33;;
35803;SDS011;21924;51.934;7.414;2023-05-15T06:14:33;43.33;;;23.52;;
35803;SDS011;21924;51.934;7.414;2023-05-15T06:17:18;46.90;;;24.13;;
35803;SDS011;21924;51.934;7.414;2023-05-15T06:20:02;44.00;;;23.13;;
35803;SDS011;21924;51.934;7.414;2023-05-15T06:22:51;47.67;;;23.58;;
35803;SDS011;21924;51.934;7.414;2023-05-15T06:25:35;48.95;;;24.88;;
35803;SDS011;21924;51.934;7.414;2023-05-15T06:28:20;44.10;;;21.92;;
35803;SDS011;21924;51.934;7.414;2023-05-15T06:31:04;44.75;;;22.25;;
35803;SDS011;21924;51.934;7.414;2023-05-15T06:33:48;43.60;;;21.30;;
35803;SDS011;21924;51.934;7.414;2023-05-15T06:36:32;46.42;;;22.90;;
35803;SDS011;21924;51.934;7.414;2023-05-15T06:39:17;43.78;;;23.15;;
35803;SDS011;21924;51.934;7.414;2023-05-15T06:42:01;42.95;;;21.85;;
35803;SDS011;21924;51.934;7.414;2023-05-15T06:44:46;41.00;;;21.58;;
35803;SDS011;21924;51.934;7.414;2023-05-15T06:47:30;44.88;;;21.17;;
35803;SDS011;21924;51.934;7.414;2023-05-15T06:50:15;40.72;;;21.38;;
35803;SDS011;21924;51.934;7.414;2023-05-15T06:52:59;43.03;;;21.70;;
35803;SDS011;21924;51.934;7.414;2023-05-15T06:55:43;39.75;;;20.98;;
35803;SDS011;21924;51.934;7.414;2023-05-15T06:58:28;38.15;;;20.50;;
35803;SDS011;21924;51.934;7.414;2023-05-15T07:01:12;42.15;;;20.02;;
35803;SDS011;21924;51.934;7.414;2023-05-15T07:03:56;35.25;;;19.48;;
35803;SDS011;21924;51.934;7.414;2023-05-15T07:06:41;38.30;;;18.88;;
35803;SDS011;21924;51.934;7.414;2023-05-15T07:09:26;34.97;;;20.43;;
35803;SDS011;21924;51.934;7.414;2023-05-15T07:12:10;36.40;;;19.17;;
35803;SDS011;21924;51.934;7.414;2023-05-15T07:14:54;40.28;;;19.50;;
35803;SDS011;21924;51.934;7.414;2023-05-15T07:17:38;36.75;;;19.15;;
35803;SDS011;21924;51.934;7.414;2023-05-15T07:20:22;43.38;;;23.05;;
35803;SDS011;21924;51.934;7.414;2023-05-15T07:23:07;40.72;;;19.85;;
35803;SDS011;21924;51.934;7.414;2023-05-15T07:25:54;36.67;;;20.52;;
35803;SDS011;21924;51.934;7.414;2023-05-15T07:28:38;42.40;;;21.85;;
35803;SDS011;21924;51.934;7.414;2023-05-15T07:31:22;44.40;;;22.10;;
35803;SDS011;21924;51.934;7.414;2023-05-15T07:34:08;51.90;;;23.60;;
35803;SDS011;21924;51.934;7.414;2023-05-15T07:36:52;43.05;;;20.70;;
35803;SDS011;21924;51.934;7.414;2023-05-15T07:39:36;37.53;;;20.33;;
35803;SDS011;21924;51.934;7.414;2023-05-15T07:42:20;42.78;;;21.95;;
35803;SDS011;21924;51.934;7.414;2023-05-15T07:45:05;48.25;;;22.67;;
35803;SDS011;21924;51.934;7.414;2023-05-15T07:47:50;42.78;;;21.52;;
35803;SDS011;21924;51.934;7.414;2023-05-15T07:50:34;46.72;;;22.20;;
35803;SDS011;21924;51.934;7.414;2023-05-15T07:53:18;49.35;;;22.73;;
35803;SDS011;21924;51.934;7.414;2023-05-15T07:56:03;44.50;;;22.90;;
35803;SDS011;21924;51.934;7.414;2023-05-15T07:58:47;48.47;;;22.30;;
35803;SDS011;21924;51.934;7.414;2023-05-15T08:01:31;44.33;;;21.67;;
35803;SDS011;21924;51.934;7.414;2023-05-15T08:04:16;48.28;;;24.25;;
35803;SDS011;21924;51.934;7.414;2023-05-15T08:07:00;45.55;;;21.90;;
35803;SDS011;21924;51.934;7.414;2023-05-15T08:09:44;45.42;;;22.50;;
35803;SDS011;21924;51.934;7.414;2023-05-15T08:12:28;44.05;;;22.17;;
35803;SDS011;21924;51.934;7.414;2023-05-15T08:15:13;46.67;;;22.40;;
35803;SDS011;21924;51.934;7.414;2023-05-15T08:17:57;46.05;;;23.23;;
35803;SDS011;21924;51.934;7.414;2023-05-15T08:20:41;40.45;;;20.95;;
35803;SDS011;21924;51.934;7.414;2023-05-15T08:23:26;47.25;;;21.90;;
35803;SDS011;21924;51.934;7.414;2023-05-15T08:26:10;45.50;;;22.15;;
35803;SDS011;21924;51.934;7.414;2023-05-15T08:28:54;44.17;;;21.95;;
35803;SDS011;21924;51.934;7.414;2023-05-15T08:31:39;46.42;;;22.42;;
35803;SDS011;21924;51.934;7.414;2023-05-15T08:34:23;46.03;;;20.45;;
35803;SDS011;21924;51.934;7.414;2023-05-15T08:37:08;42.83;;;22.30;;
35803;SDS011;21924;51.934;7.414;2023-05-15T08:39:52;46.95;;;21.63;;
35803;SDS011;21924;51.934;7.414;2023-05-15T08:42:41;45.60;;;22.10;;
35803;SDS011;21924;51.934;7.414;2023-05-15T08:45:28;43.20;;;21.23;;
35803;SDS011;21924;51.934;7.414;2023-05-15T08:48:13;44.08;;;21.20;;
35803;SDS011;21924;51.934;7.414;2023-05-15T08:50:59;48.42;;;22.13;;
35803;SDS011;21924;51.934;7.414;2023-05-15T08:53:44;45.13;;;21.67;;
35803;SDS011;21924;51.934;7.414;2023-05-15T08:56:29;45.03;;;21.65;;
35803;SDS011;21924;51.934;7.414;2023-05-15T08:59:13;43.30;;;21.73;;
35803;SDS011;21924;51.934;7.414;2023-05-15T09:01:58;44.90;;;21.27;;
35803;SDS011;21924;51.934;7.414;2023-05-15T09:04:43;42.25;;;20.27;;
35803;SDS011;21924;51.934;7.414;2023-05-15T09:07:28;47.97;;;21.88;;
35803;SDS011;21924;51.934;7.414;2023-05-15T09:10:13;47.83;;;21.80;;
35803;SDS011;21924;51.934;7.414;2023-05-15T09:12:59;46.90;;;22.05;;
35803;SDS011;21924;51.934;7.414;2023-05-15T09:15:45;40.20;;;20.70;;
35803;SDS011;21924;51.934;7.414;2023-05-15T09:18:30;43.58;;;20.65;;
35803;SDS011;21924;51.934;7.414;2023-05-15T09:21:22;45.60;;;23.10;;
35803;SDS011;21924;51.934;7.414;2023-05-15T09:24:17;43.47;;;22.88;;
35803;SDS011;21924;51.934;7.414;2023-05-15T09:27:03;47.05;;;21.58;;
35803;SDS011;21924;51.934;7.414;2023-05-15T09:29:49;45.35;;;21.77;;
35803;SDS011;21924;51.934;7.414;2023-05-15T09:32:37;43.97;;;21.33;;
35803;SDS011;21924;51.934;7.414;2023-05-15T09:35:29;44.28;;;21.27;;
35803;SDS011;21924;51.934;7.414;2023-05-15T09:38:18;41.58;;;20.38;;
35803;SDS011;21924;51.934;7.414;2023-05-15T09:41:03;45.58;;;21.13;;
35803;SDS011;21924;51.934;7.414;2023-05-15T09:43:48;42.70;;;20.92;;
35803;SDS011;21924;51.934;7.414;2023-05-15T09:46:33;39.95;;;21.75;;
35803;SDS011;21924;51.934;7.414;2023-05-15T09:49:19;44.15;;;22.17;;
35803;SDS011;21924;51.934;7.414;2023-05-15T09:52:06;39.38;;;20.70;;
35803;SDS011;21924;51.934;7.414;2023-05-15T09:54:51;43.97;;;21.67;;
35803;SDS011;21924;51.934;7.414;2023-05-15T09:57:36;40.38;;;20.90;;
35803;SDS011;21924;51.934;7.414;2023-05-15T10:00:21;38.95;;;19.80;;
35803;SDS011;21924;51.934;7.414;2023-05-15T10:03:07;39.25;;;20.65;;
35803;SDS011;21924;51.934;7.414;2023-05-15T10:05:58;40.00;;;19.52;;
35803;SDS011;21924;51.934;7.414;2023-05-15T10:08:49;34.33;;;19.35;;
35803;SDS011;21924;51.934;7.414;2023-05-15T10:11:35;37.83;;;20.10;;
35803;SDS011;21924;51.934;7.414;2023-05-15T10:14:21;40.03;;;20.77;;
35803;SDS011;21924;51.934;7.414;2023-05-15T10:17:06;39.85;;;20.27;;
35803;SDS011;21924;51.934;7.414;2023-05-15T10:19:52;38.58;;;20.25;;
35803;SDS011;21924;51.934;7.414;2023-05-15T10:22:37;41.63;;;20.83;;
35803;SDS011;21924;51.934;7.414;2023-05-15T10:25:41;40.95;;;20.60;;
35803;SDS011;21924;51.934;7.414;2023-05-15T10:28:33;39.28;;;20.88;;
35803;SDS011;21924;51.934;7.414;2023-05-15T10:31:18;35.78;;;19.10;;
35803;SDS011;21924;51.934;7.414;2023-05-15T10:34:03;30.38;;;18.42;;
35803;SDS011;21924;51.934;7.414;2023-05-15T10:36:47;37.97;;;18.23;;
35803;SDS011;21924;51.934;7.414;2023-05-15T10:39:33;32.03;;;17.80;;
35803;SDS011;21924;51.934;7.414;2023-05-15T10:42:20;35.30;;;17.48;;
35803;SDS011;21924;51.934;7.414;2023-05-15T10:45:08;29.67;;;16.02;;
35803;SDS011;21924;51.934;7.414;2023-05-15T10:47:53;30.88;;;17.52;;
35803;SDS011;21924;51.934;7.414;2023-05-15T10:50:38;29.27;;;15.73;;
35803;SDS011;21924;51.934;7.414;2023-05-15T10:53:22;34.42;;;17.15;;
35803;SDS011;21924;51.934;7.414;2023-05-15T10:56:10;28.38;;;17.10;;
35803;SDS011;21924;51.934;7.414;2023-05-15T10:58:56;29.83;;;15.93;;
35803;SDS011;21924;51.934;7.414;2023-05-15T11:01:40;30.77;;;16.70;;
35803;SDS011;21924;51.934;7.414;2023-05-15T11:04:25;30.23;;;16.50;;
35803;SDS011;21924;51.934;7.414;2023-05-15T11:07:15;28.27;;;14.50;;
35803;SDS011;21924;51.934;7.414;2023-05-15T11:10:33;23.00;;;12.50;;
35803;SDS011;21924;51.934;7.414;2023-05-15T11:13:11;23.73;;;11.55;;
35803;SDS011;21924;51.934;7.414;2023-05-15T11:15:55;27.63;;;12.38;;
35803;SDS011;21924;51.934;7.414;2023-05-15T11:18:39;28.65;;;13.50;;
35803;SDS011;21924;51.934;7.414;2023-05-15T11:21:30;21.88;;;12.77;;
35803;SDS011;21924;51.934;7.414;2023-05-15T11:24:15;19.45;;;10.75;;
35803;SDS011;21924;51.934;7.414;2023-05-15T11:27:02;21.25;;;12.27;;
35803;SDS011;21924;51.934;7.414;2023-05-15T11:33:01;19.13;;;10.65;;
35803;SDS011;21924;51.934;7.414;2023-05-15T11:35:58;19.75;;;10.07;;
35803;SDS011;21924;51.934;7.414;2023-05-15T11:38:43;20.20;;;9.73;;
35803;SDS011;21924;51.934;7.414;2023-05-15T11:41:33;17.33;;;9.63;;
35803;SDS011;21924;51.934;7.414;2023-05-15T11:44:21;13.63;;;7.93;;
35803;SDS011;21924;51.934;7.414;2023-05-15T11:47:09;19.17;;;9.52;;
35803;SDS011;21924;51.934;7.414;2023-05-15T11:49:53;12.57;;;8.52;;
35803;SDS011;21924;51.934;7.414;2023-05-15T11:52:38;15.50;;;8.90;;
35803;SDS011;21924;51.934;7.414;2023-05-15T11:55:22;13.95;;;9.35;;
35803;SDS011;21924;51.934;7.414;2023-05-15T11:58:14;17.30;;;9.45;;
35803;SDS011;21924;51.934;7.414;2023-05-15T12:01:00;16.08;;;9.52;;
35803;SDS011;21924;51.934;7.414;2023-05-15T12:03:45;15.73;;;10.10;;
35803;SDS011;21924;51.934;7.414;2023-05-15T12:06:31;21.45;;;10.77;;
35803;SDS011;21924;51.934;7.414;2023-05-15T12:09:16;15.63;;;8.45;;
35803;SDS011;21924;51.934;7.414;2023-05-15T12:12:02;15.63;;;8.15;;
35803;SDS011;21924;51.934;7.414;2023-05-15T12:14:47;18.30;;;7.90;;
35803;SDS011;21924;51.934;7.414;2023-05-15T12:17:32;14.90;;;7.10;;
35803;SDS011;21924;51.934;7.414;2023-05-15T12:20:17;8.43;;;5.55;;
35803;SDS011;21924;51.934;7.414;2023-05-15T12:23:02;9.25;;;5.30;;
35803;SDS011;21924;51.934;7.414;2023-05-15T12:25:47;14.88;;;6.75;;
35803;SDS011;21924;51.934;7.414;2023-05-15T12:28:33;10.30;;;6.18;;
35803;SDS011;21924;51.934;7.414;2023-05-15T12:31:19;13.93;;;5.70;;
35803;SDS011;21924;51.934;7.414;2023-05-15T12:34:03;11.00;;;5.68;;
35803;SDS011;21924;51.934;7.414;2023-05-15T12:36:48;12.95;;;6.68;;
35803;SDS011;21924;51.934;7.414;2023-05-15T12:39:32;13.05;;;6.07;;
35803;SDS011;21924;51.934;7.414;2023-05-15T12:42:17;8.63;;;5.38;;
35803;SDS011;21924;51.934;7.414;2023-05-15T12:45:01;8.40;;;5.40;;
35803;SDS011;21924;51.934;7.414;2023-05-15T12:47:46;8.05;;;5.15;;
35803;SDS011;21924;51.934;7.414;2023-05-15T12:50:33;7.30;;;4.15;;
35803;SDS011;21924;51.934;7.414;2023-05-15T12:53:21;7.55;;;4.07;;
35803;SDS011;21924;51.934;7.414;2023-05-15T12:56:05;5.80;;;3.40;;
35803;SDS011;21924;51.934;7.414;2023-05-15T12:58:50;7.50;;;4.40;;
35803;SDS011;21924;51.934;7.414;2023-05-15T13:01:37;5.63;;;3.45;;
35803;SDS011;21924;51.934;7.414;2023-05-15T13:04:24;6.57;;;3.42;;
35803;SDS011;21924;51.934;7.414;2023-05-15T13:07:08;7.32;;;3.97;;
35803;SDS011;21924;51.934;7.414;2023-05-15T13:10:05;6.00;;;4.35;;
35803;SDS011;21924;51.934;7.414;2023-05-15T13:12:51;9.25;;;5.25;;
35803;SDS011;21924;51.934;7.414;2023-05-15T13:15:37;10.60;;;6.30;;
35803;SDS011;21924;51.934;7.414;2023-05-15T13:18:23;6.70;;;4.57;;
35803;SDS011;21924;51.934;7.414;2023-05-15T13:21:08;7.72;;;4.95;;
35803;SDS011;21924;51.934;7.414;2023-05-15T13:23:52;9.93;;;5.60;;
35803;SDS011;21924;51.934;7.414;2023-05-15T13:26:36;9.60;;;5.88;;
35803;SDS011;21924;51.934;7.414;2023-05-15T13:29:21;8.55;;;6.13;;
35803;SDS011;21924;51.934;7.414;2023-05-15T13:32:05;7.88;;;5.28;;
35803;SDS011;21924;51.934;7.414;2023-05-15T13:34:50;11.98;;;5.93;;
35803;SDS011;21924;51.934;7.414;2023-05-15T13:37:37;17.95;;;5.03;;
35803;SDS011;21924;51.934;7.414;2023-05-15T13:40:21;8.23;;;4.97;;
35803;SDS011;21924;51.934;7.414;2023-05-15T13:43:06;9.35;;;5.57;;
35803;SDS011;21924;51.934;7.414;2023-05-15T13:45:50;8.57;;;5.18;;
35803;SDS011;21924;51.934;7.414;2023-05-15T13:48:35;7.60;;;5.13;;
35803;SDS011;21924;51.934;7.414;2023-05-15T13:51:19;10.23;;;5.05;;
35803;SDS011;21924;51.934;7.414;2023-05-15T13:54:03;9.02;;;4.75;;
35803;SDS011;21924;51.934;7.414;2023-05-15T13:56:47;8.10;;;4.55;;
35803;SDS011;21924;51.934;7.414;2023-05-15T13:59:31;10.55;;;4.75;;
35803;SDS011;21924;51.934;7.414;2023-05-15T14:02:16;6.85;;;4.63;;
35803;SDS011;21924;51.934;7.414;2023-05-15T14:05:00;8.15;;;4.88;;
35803;SDS011;21924;51.934;7.414;2023-05-15T14:07:44;9.68;;;4.75;;
35803;SDS011;21924;51.934;7.414;2023-05-15T14:10:29;9.20;;;4.25;;
35803;SDS011;21924;51.934;7.414;2023-05-15T14:13:13;7.95;;;3.95;;
35803;SDS011;21924;51.934;7.414;2023-05-15T14:15:57;14.65;;;4.40;;
35803;SDS011;21924;51.934;7.414;2023-05-15T14:18:42;6.60;;;3.83;;
35803;SDS011;21924;51.934;7.414;2023-05-15T14:21:26;9.02;;;3.67;;
35803;SDS011;21924;51.934;7.414;2023-05-15T14:24:10;9.50;;;4.10;;
35803;SDS011;21924;51.934;7.414;2023-05-15T14:26:54;25.23;;;4.47;;
35803;SDS011;21924;51.934;7.414;2023-05-15T14:29:39;7.47;;;4.63;;
35803;SDS011;21924;51.934;7.414;2023-05-15T14:32:23;7.65;;;4.40;;
35803;SDS011;21924;51.934;7.414;2023-05-15T14:35:08;7.47;;;4.13;;
35803;SDS011;21924;51.934;7.414;2023-05-15T14:37:52;9.00;;;4.22;;
35803;SDS011;21924;51.934;7.414;2023-05-15T14:40:36;12.30;;;4.28;;
35803;SDS011;21924;51.934;7.414;2023-05-15T14:43:21;6.32;;;3.38;;
35803;SDS011;21924;51.934;7.414;2023-05-15T14:46:07;5.95;;;3.53;;
35803;SDS011;21924;51.934;7.414;2023-05-15T14:48:51;6.43;;;3.42;;
35803;SDS011;21924;51.934;7.414;2023-05-15T14:51:36;6.53;;;3.75;;
35803;SDS011;21924;51.934;7.414;2023-05-15T14:54:20;6.03;;;4.18;;
35803;SDS011;21924;51.934;7.414;2023-05-15T14:57:04;10.13;;;6.05;;
35803;SDS011;21924;51.934;7.414;2023-05-15T14:59:50;9.68;;;5.45;;
35803;SDS011;21924;51.934;7.414;2023-05-15T15:02:34;12.93;;;5.10;;
35803;SDS011;21924;51.934;7.414;2023-05-15T15:05:18;7.95;;;5.15;;
35803;SDS011;21924;51.934;7.414;2023-05-15T15:08:04;6.70;;;4.35;;
35803;SDS011;21924;51.934;7.414;2023-05-15T15:10:50;7.88;;;4.85;;
35803;SDS011;21924;51.934;7.414;2023-05-15T15:13:34;6.10;;;3.80;;
35803;SDS011;21924;51.934;7.414;2023-05-15T15:16:18;4.65;;;3.67;;
35803;SDS011;21924;51.934;7.414;2023-05-15T15:19:02;6.85;;;4.00;;
35803;SDS011;21924;51.934;7.414;2023-05-15T15:21:47;5.97;;;3.70;;
35803;SDS011;21924;51.934;7.414;2023-05-15T15:24:31;4.55;;;3.17;;
35803;SDS011;21924;51.934;7.414;2023-05-15T15:27:15;5.97;;;3.45;;
35803;SDS011;21924;51.934;7.414;2023-05-15T15:29:59;6.93;;;3.15;;
35803;SDS011;21924;51.934;7.414;2023-05-15T15:32:46;3.88;;;2.60;;
35803;SDS011;21924;51.934;7.414;2023-05-15T15:35:30;4.07;;;2.50;;
35803;SDS011;21924;51.934;7.414;2023-05-15T15:38:15;11.65;;;3.28;;
35803;SDS011;21924;51.934;7.414;2023-05-15T15:41:00;3.85;;;2.70;;
35803;SDS011;21924;51.934;7.414;2023-05-15T15:46:30;5.15;;;3.20;;
35803;SDS011;21924;51.934;7.414;2023-05-15T15:49:14;5.38;;;3.40;;
35803;SDS011;21924;51.934;7.414;2023-05-15T15:51:58;4.85;;;3.17;;
35803;SDS011;21924;51.934;7.414;2023-05-15T15:54:42;3.65;;;3.00;;
35803;SDS011;21924;51.934;7.414;2023-05-15T15:57:31;3.67;;;2.75;;
35803;SDS011;21924;51.934;7.414;2023-05-15T16:00:15;6.78;;;3.15;;
35803;SDS011;21924;51.934;7.414;2023-05-15T16:02:59;4.65;;;3.15;;
35803;SDS011;21924;51.934;7.414;2023-05-15T16:05:44;4.75;;;3.08;;
35803;SDS011;21924;51.934;7.414;2023-05-15T16:08:28;6.85;;;3.80;;
35803;SDS011;21924;51.934;7.414;2023-05-15T16:11:12;7.03;;;3.75;;
35803;SDS011;21924;51.934;7.414;2023-05-15T16:13:58;5.43;;;3.83;;
35803;SDS011;21924;51.934;7.414;2023-05-15T16:16:42;12.15;;;4.13;;
35803;SDS011;21924;51.934;7.414;2023-05-15T16:19:26;6.65;;;3.53;;
35803;SDS011;21924;51.934;7.414;2023-05-15T16:22:11;5.57;;;3.63;;
35803;SDS011;21924;51.934;7.414;2023-05-15T16:24:55;5.50;;;3.53;;
35803;SDS011;21924;51.934;7.414;2023-05-15T16:27:40;12.07;;;3.70;;
35803;SDS011;21924;51.934;7.414;2023-05-15T16:30:24;8.27;;;3.63;;
35803;SDS011;21924;51.934;7.414;2023-05-15T16:33:09;9.05;;;5.10;;
35803;SDS011;21924;51.934;7.414;2023-05-15T16:35:53;9.20;;;5.70;;
35803;SDS011;21924;51.934;7.414;2023-05-15T16:38:38;12.15;;;6.50;;